createdAt,value
2019-02-21T00:02:13.708Z,20.37
2019-02-21T00:04:42.175Z,21.33
2019-02-21T00:07:10.799Z,23.60
2019-02-21T00:09:39.263Z,22.20
2019-02-21T00:12:07.685Z,25.27
2019-02-21T00:14:36.204Z,22.10
2019-02-21T00:17:04.780Z,21.07
2019-02-21T00:19:33.243Z,22.87
2019-02-21T00:22:01.740Z,20.30
2019-02-21T00:24:30.155Z,21.63
2019-02-21T00:26:58.742Z,22.83
2019-02-21T00:29:27.204Z,22.23
2019-02-21T00:31:55.623Z,22.93
2019-02-21T00:34:24.186Z,21.33
2019-02-21T00:36:52.668Z,20.27
2019-02-21T00:39:21.242Z,21.60
2019-02-21T00:41:49.708Z,20.20
2019-02-21T00:44:18.157Z,20.50
2019-02-21T00:46:46.676Z,24.40
2019-02-21T00:49:15.111Z,22.90
2019-02-21T00:51:43.560Z,20.73
2019-02-21T00:54:12.159Z,22.77
2019-02-21T00:56:40.683Z,20.17
2019-02-21T00:59:09.272Z,19.63
2019-02-21T01:01:37.728Z,18.80
2019-02-21T01:04:06.287Z,18.37
2019-02-21T01:06:34.750Z,20.13
2019-02-21T01:09:04.414Z,21.43
2019-02-21T01:11:32.965Z,20.53
2019-02-21T01:14:01.470Z,21.97
2019-02-21T01:16:30.073Z,17.43
2019-02-21T01:18:58.675Z,19.30
2019-02-21T01:21:27.090Z,17.53
2019-02-21T01:23:55.765Z,18.73
2019-02-21T01:26:24.213Z,17.13
2019-02-21T01:28:53.159Z,18.57
2019-02-21T01:31:21.683Z,18.83
2019-02-21T01:33:50.486Z,19.17
2019-02-21T01:36:19.081Z,17.10
2019-02-21T01:38:47.602Z,16.93
2019-02-21T01:41:16.090Z,19.37
2019-02-21T01:43:44.538Z,17.43
2019-02-21T01:46:13.043Z,17.43
2019-02-21T01:48:41.525Z,17.73
2019-02-21T01:51:10.075Z,17.70
2019-02-21T01:53:38.597Z,18.10
2019-02-21T01:56:07.273Z,19.43
2019-02-21T01:58:35.799Z,17.17
2019-02-21T02:01:08.592Z,19.07
2019-02-21T02:03:34.810Z,17.83
2019-02-21T02:06:03.243Z,16.97
2019-02-21T02:08:31.743Z,16.63
2019-02-21T02:11:00.295Z,17.93
2019-02-21T02:13:28.754Z,16.57
2019-02-21T02:15:57.188Z,16.50
2019-02-21T02:18:25.667Z,18.13
2019-02-21T02:20:54.259Z,15.93
2019-02-21T02:23:22.677Z,18.00
2019-02-21T02:25:51.141Z,17.63
2019-02-21T02:28:19.617Z,17.30
2019-02-21T02:30:48.278Z,17.30
2019-02-21T02:33:16.835Z,20.07
2019-02-21T02:35:45.441Z,18.87
2019-02-21T02:38:13.947Z,21.10
2019-02-21T02:40:42.465Z,19.10
2019-02-21T02:43:11.238Z,19.60
2019-02-21T02:45:39.717Z,17.53
2019-02-21T02:48:08.215Z,20.53
2019-02-21T02:50:36.670Z,19.17
2019-02-21T02:53:05.108Z,19.30
2019-02-21T02:55:33.563Z,18.80
2019-02-21T02:58:01.983Z,20.60
2019-02-21T03:00:30.485Z,19.60
2019-02-21T03:02:59.158Z,17.37
2019-02-21T03:05:27.772Z,21.87
2019-02-21T03:07:56.481Z,18.73
2019-02-21T03:10:25.004Z,18.63
2019-02-21T03:12:53.443Z,19.53
2019-02-21T03:15:22.033Z,20.27
2019-02-21T03:17:50.622Z,20.60
2019-02-21T03:20:19.144Z,21.17
2019-02-21T03:22:47.585Z,19.60
2019-02-21T03:25:16.348Z,20.43
2019-02-21T03:27:44.812Z,23.90
2019-02-21T03:30:13.548Z,19.40
2019-02-21T03:32:42.179Z,20.60
2019-02-21T03:35:10.797Z,20.47
2019-02-21T03:37:39.277Z,19.73
2019-02-21T03:40:09.699Z,22.63
2019-02-21T03:42:38.153Z,21.07
2019-02-21T03:45:09.978Z,21.63
2019-02-21T03:47:38.481Z,24.50
2019-02-21T03:50:09.377Z,23.53
2019-02-21T03:52:37.837Z,24.33
2019-02-21T03:55:07.529Z,19.33
2019-02-21T03:57:36.001Z,23.23
2019-02-21T04:00:07.196Z,25.87
2019-02-21T04:02:35.957Z,23.03
2019-02-21T04:05:05.528Z,22.47
2019-02-21T04:07:34.065Z,26.57
2019-02-21T04:10:02.778Z,21.97
2019-02-21T04:12:31.209Z,22.40
2019-02-21T04:14:59.736Z,23.73
2019-02-21T04:17:28.378Z,22.57
2019-02-21T04:19:56.868Z,22.57
2019-02-21T04:22:25.489Z,24.03
2019-02-21T04:24:54.077Z,25.33
2019-02-21T04:27:22.691Z,28.03
2019-02-21T04:29:51.223Z,26.40
2019-02-21T04:32:19.830Z,22.83
2019-02-21T04:34:48.282Z,27.23
2019-02-21T04:37:16.783Z,27.73
2019-02-21T04:39:45.240Z,26.13
2019-02-21T04:42:13.723Z,26.90
2019-02-21T04:44:42.192Z,24.83
2019-02-21T04:47:10.778Z,25.57
2019-02-21T04:49:39.275Z,27.00
2019-02-21T04:52:07.855Z,30.07
2019-02-21T04:54:36.385Z,25.60
2019-02-21T04:57:04.835Z,29.83
2019-02-21T04:59:33.274Z,29.60
2019-02-21T05:02:01.707Z,27.63
2019-02-21T05:04:30.280Z,33.57
2019-02-21T05:06:58.893Z,31.77
2019-02-21T05:09:27.520Z,30.77
2019-02-21T05:11:56.063Z,31.97
2019-02-21T05:14:24.694Z,28.63
2019-02-21T05:16:53.182Z,33.73
2019-02-21T05:19:21.634Z,32.70
2019-02-21T05:21:50.060Z,32.80
2019-02-21T05:24:18.565Z,27.17
2019-02-21T05:26:48.636Z,31.33
2019-02-21T05:29:17.157Z,36.83
2019-02-21T05:31:47.352Z,35.00
2019-02-21T05:34:26.574Z,32.13
2019-02-21T05:37:14.667Z,33.17
2019-02-21T05:40:03.550Z,35.57
2019-02-21T05:42:33.776Z,30.97
2019-02-21T05:45:11.090Z,30.83
2019-02-21T05:47:44.505Z,33.93
2019-02-21T05:50:20.453Z,34.17
2019-02-21T05:52:53.169Z,36.07
2019-02-21T05:55:26.168Z,34.27
2019-02-21T05:57:58.901Z,34.97
2019-02-21T06:00:28.947Z,34.57
2019-02-21T06:02:59.208Z,37.97
2019-02-21T06:05:29.453Z,44.17
2019-02-21T06:08:15.732Z,35.77
2019-02-21T06:10:45.882Z,36.67
2019-02-21T06:13:32.533Z,35.30
2019-02-21T06:16:05.948Z,41.73
2019-02-21T06:18:42.352Z,38.87
2019-02-21T06:21:12.457Z,40.23
2019-02-21T06:23:42.538Z,36.53
2019-02-21T06:26:12.614Z,39.30
2019-02-21T06:28:48.801Z,37.33
2019-02-21T06:31:17.454Z,38.67
2019-02-21T06:33:45.978Z,39.43
2019-02-21T06:36:14.572Z,42.63
2019-02-21T06:38:43.029Z,42.70
2019-02-21T06:41:11.524Z,38.97
2019-02-21T06:43:40.228Z,46.87
2019-02-21T06:46:08.720Z,40.33
2019-02-21T06:48:37.309Z,43.93
2019-02-21T06:51:05.819Z,39.07
2019-02-21T06:53:34.339Z,39.87
2019-02-21T06:56:02.975Z,41.97
2019-02-21T06:58:31.437Z,42.50
2019-02-21T07:00:59.863Z,39.83
2019-02-21T07:03:29.129Z,40.50
2019-02-21T07:05:57.703Z,41.00
2019-02-21T07:08:26.294Z,39.87
2019-02-21T07:11:05.516Z,41.57
2019-02-21T07:13:26.944Z,40.07
2019-02-21T07:15:55.205Z,45.53
2019-02-21T07:18:23.678Z,41.97
2019-02-21T07:20:52.124Z,45.50
2019-02-21T07:23:21.275Z,47.13
2019-02-21T07:25:50.826Z,43.57
2019-02-21T07:28:19.305Z,47.80
2019-02-21T07:30:48.459Z,42.70
2019-02-21T07:33:27.704Z,49.17
2019-02-21T07:35:47.161Z,48.20
2019-02-21T07:38:17.177Z,40.37
2019-02-21T07:40:46.224Z,38.23
2019-02-21T07:43:14.657Z,38.43
2019-02-21T07:45:43.180Z,50.07
2019-02-21T07:48:11.620Z,54.50
2019-02-21T07:50:40.153Z,40.17
2019-02-21T07:53:08.659Z,38.37
2019-02-21T07:55:37.114Z,39.20
2019-02-21T07:58:05.630Z,42.40
2019-02-21T08:00:34.307Z,38.73
2019-02-21T08:03:02.764Z,42.67
2019-02-21T08:05:31.233Z,38.93
2019-02-21T08:07:59.895Z,38.37
2019-02-21T08:10:33.617Z,39.67
2019-02-21T08:12:58.587Z,41.30
2019-02-21T08:15:27.880Z,39.47
2019-02-21T08:17:56.430Z,38.47
2019-02-21T08:20:33.540Z,80.93
2019-02-21T08:22:56.232Z,44.10
2019-02-21T08:25:24.836Z,36.60
2019-02-21T08:27:53.309Z,40.90
2019-02-21T08:30:21.787Z,42.33
2019-02-21T08:33:00.679Z,40.97
2019-02-21T08:35:30.125Z,43.47
2019-02-21T08:37:58.661Z,37.80
2019-02-21T08:40:27.443Z,37.13
2019-02-21T08:42:55.979Z,39.10
2019-02-21T08:45:24.647Z,38.47
2019-02-21T08:47:53.241Z,40.20
2019-02-21T08:50:22.480Z,36.73
2019-02-21T08:52:51.395Z,39.07
2019-02-21T08:55:19.918Z,31.10
2019-02-21T08:57:48.375Z,40.57
2019-02-21T09:00:17.243Z,37.10
2019-02-21T09:02:45.866Z,37.70
2019-02-21T09:05:14.926Z,38.30
2019-02-21T09:07:46.216Z,37.13
2019-02-21T09:10:14.259Z,37.83
2019-02-21T09:12:47.754Z,37.77
2019-02-21T09:15:15.709Z,40.67
2019-02-21T09:17:44.168Z,36.53
2019-02-21T09:20:12.936Z,37.40
2019-02-21T09:22:41.408Z,35.83
2019-02-21T09:25:13.754Z,37.00
2019-02-21T09:27:42.323Z,37.63
2019-02-21T09:30:15.823Z,36.50
2019-02-21T09:32:44.381Z,39.10
2019-02-21T09:35:12.988Z,38.73
2019-02-21T09:37:41.463Z,35.33
2019-02-21T09:40:12.708Z,38.93
2019-02-21T09:42:41.284Z,33.20
2019-02-21T09:45:18.010Z,37.00
2019-02-21T09:47:46.442Z,35.27
2019-02-21T09:50:15.247Z,36.80
2019-02-21T09:52:43.802Z,36.17
2019-02-21T09:55:15.116Z,32.73
2019-02-21T09:57:43.647Z,35.63
2019-02-21T10:00:22.590Z,34.93
2019-02-21T10:02:54.310Z,34.63
2019-02-21T10:05:21.251Z,32.23
2019-02-21T10:07:49.770Z,33.40
2019-02-21T10:10:19.769Z,37.60
2019-02-21T10:12:48.316Z,35.30
2019-02-21T10:15:19.794Z,39.63
2019-02-21T10:17:50.759Z,34.53
2019-02-21T10:20:20.428Z,38.67
2019-02-21T10:22:48.877Z,35.40
2019-02-21T10:25:26.243Z,35.33
2019-02-21T10:27:54.751Z,36.07
2019-02-21T10:30:23.893Z,33.60
2019-02-21T10:32:52.458Z,34.60
2019-02-21T10:35:21.020Z,35.07
2019-02-21T10:37:49.543Z,37.13
2019-02-21T10:40:18.234Z,36.70
2019-02-21T10:42:46.834Z,36.70
2019-02-21T10:45:19.923Z,35.40
2019-02-21T10:47:48.530Z,42.00
2019-02-21T10:50:19.553Z,42.33
2019-02-21T10:52:48.480Z,35.40
2019-02-21T10:55:18.071Z,38.67
2019-02-21T10:57:46.814Z,30.10
2019-02-21T11:00:26.950Z,34.23
2019-02-21T11:02:55.596Z,31.77
2019-02-21T11:05:24.105Z,32.13
2019-02-21T11:07:52.651Z,33.53
2019-02-21T11:10:28.997Z,28.67
2019-02-21T11:12:57.584Z,28.83
2019-02-21T11:15:26.525Z,25.83
2019-02-21T11:17:55.519Z,28.37
2019-02-21T11:20:24.297Z,29.47
2019-02-21T11:22:52.790Z,27.27
2019-02-21T11:25:21.538Z,28.00
2019-02-21T11:27:50.080Z,27.33
2019-02-21T11:30:19.662Z,28.17
2019-02-21T11:32:48.191Z,28.60
2019-02-21T11:35:16.838Z,28.63
2019-02-21T11:37:47.110Z,24.07
2019-02-21T11:40:17.543Z,22.30
2019-02-21T11:42:46.325Z,25.27
2019-02-21T11:45:17.801Z,26.20
2019-02-21T11:47:46.422Z,26.30
2019-02-21T11:50:16.609Z,23.87
2019-02-21T11:52:45.378Z,40.07
2019-02-21T11:55:16.260Z,30.80
2019-02-21T11:57:44.767Z,24.37
2019-02-21T12:00:19.450Z,26.00
2019-02-21T12:02:48.083Z,27.17
2019-02-21T12:05:17.746Z,26.63
2019-02-21T12:07:46.409Z,21.87
2019-02-21T12:10:15.194Z,22.73
2019-02-21T12:12:43.625Z,20.77
2019-02-21T12:15:13.644Z,22.67
2019-02-21T12:17:43.132Z,22.67
2019-02-21T12:20:18.761Z,23.30
2019-02-21T12:22:47.588Z,22.80
2019-02-21T12:25:21.903Z,22.17
2019-02-21T12:27:50.604Z,25.70
2019-02-21T12:30:20.074Z,23.67
2019-02-21T12:32:48.672Z,21.23
2019-02-21T12:35:28.725Z,23.87
2019-02-21T12:37:47.982Z,23.60
2019-02-21T12:40:19.524Z,23.93
2019-02-21T12:42:47.952Z,22.07
2019-02-21T12:45:19.280Z,30.47
2019-02-21T12:47:53.007Z,25.90
2019-02-21T12:50:18.298Z,23.73
2019-02-21T12:52:46.793Z,23.17
2019-02-21T12:55:26.408Z,27.70
2019-02-21T12:57:45.647Z,27.53
2019-02-21T13:00:21.226Z,29.40
2019-02-21T13:02:49.915Z,25.33
2019-02-21T13:05:18.719Z,25.50
2019-02-21T13:07:47.172Z,26.07
2019-02-21T13:10:24.137Z,26.40
2019-02-21T13:12:52.636Z,24.03
2019-02-21T13:15:21.450Z,24.93
2019-02-21T13:17:51.077Z,25.60
2019-02-21T13:20:19.860Z,25.80
2019-02-21T13:22:48.368Z,23.07
2019-02-21T13:25:18.231Z,27.33
2019-02-21T13:27:46.683Z,24.90
2019-02-21T13:30:18.603Z,23.80
2019-02-21T13:32:47.196Z,23.23
2019-02-21T13:35:15.766Z,23.80
2019-02-21T13:37:44.521Z,25.00
2019-02-21T13:40:20.787Z,25.67
2019-02-21T13:42:47.728Z,27.93
2019-02-21T13:45:18.124Z,27.33
2019-02-21T13:47:46.714Z,23.97
2019-02-21T13:50:20.388Z,25.03
2019-02-21T13:52:49.386Z,24.13
2019-02-21T13:55:17.833Z,27.27
2019-02-21T13:57:46.466Z,23.60
2019-02-21T14:00:20.217Z,26.87
2019-02-21T14:02:48.806Z,23.93
2019-02-21T14:05:17.392Z,25.17
2019-02-21T14:07:46.101Z,22.97
2019-02-21T14:10:14.898Z,22.63
2019-02-21T14:12:43.425Z,26.17
2019-02-21T14:15:17.467Z,26.70
2019-02-21T14:17:46.724Z,24.97
2019-02-21T14:20:15.579Z,25.30
2019-02-21T14:22:44.585Z,23.33
2019-02-21T14:25:13.123Z,23.67
2019-02-21T14:27:41.577Z,22.80
2019-02-21T14:30:13.172Z,21.63
2019-02-21T14:32:41.642Z,22.07
2019-02-21T14:35:12.127Z,22.10
2019-02-21T14:37:40.629Z,23.43
2019-02-21T14:40:11.275Z,23.50
2019-02-21T14:42:39.853Z,21.73
2019-02-21T14:45:17.619Z,23.73
2019-02-21T14:47:46.208Z,19.67
2019-02-21T14:50:14.887Z,22.50
2019-02-21T14:52:43.492Z,20.30
2019-02-21T14:55:15.973Z,18.60
2019-02-21T14:57:44.414Z,22.17
2019-02-21T15:00:16.023Z,18.43
2019-02-21T15:02:44.456Z,19.90
2019-02-21T15:05:13.088Z,19.43
2019-02-21T15:07:41.632Z,25.53
2019-02-21T15:10:10.938Z,20.87
2019-02-21T15:12:39.403Z,21.13
2019-02-21T15:15:11.223Z,21.27
2019-02-21T15:17:39.835Z,19.43
2019-02-21T15:20:11.053Z,18.80
2019-02-21T15:22:39.610Z,22.43
2019-02-21T15:25:09.182Z,20.50
2019-02-21T15:27:37.652Z,25.37
2019-02-21T15:30:15.344Z,22.90
2019-02-21T15:32:44.911Z,20.63
2019-02-21T15:35:13.792Z,22.87
2019-02-21T15:37:44.802Z,22.60
2019-02-21T15:40:12.513Z,21.93
2019-02-21T15:42:41.040Z,22.00
2019-02-21T15:45:23.025Z,23.77
2019-02-21T15:47:48.535Z,22.17
2019-02-21T15:50:19.730Z,24.37
2019-02-21T15:52:47.902Z,22.63
2019-02-21T15:55:18.300Z,23.80
2019-02-21T15:57:46.780Z,23.57
2019-02-21T16:00:20.235Z,23.57
2019-02-21T16:02:48.777Z,21.77
2019-02-21T16:05:17.416Z,22.93
2019-02-21T16:07:45.973Z,23.03
2019-02-21T16:10:20.218Z,25.93
2019-02-21T16:12:49.503Z,22.80
2019-02-21T16:15:18.478Z,26.90
2019-02-21T16:17:47.031Z,26.10
2019-02-21T16:20:17.310Z,23.10
2019-02-21T16:22:45.856Z,26.80
2019-02-21T16:25:31.667Z,27.50
2019-02-21T16:28:00.258Z,24.37
2019-02-21T16:30:28.759Z,23.87
2019-02-21T16:32:57.306Z,26.17
2019-02-21T16:35:27.345Z,27.23
2019-02-21T16:37:56.010Z,23.57
2019-02-21T16:40:24.462Z,24.37
2019-02-21T16:42:53.003Z,26.03
2019-02-21T16:45:22.931Z,26.60
2019-02-21T16:47:51.617Z,24.87
2019-02-21T16:50:29.252Z,24.47
2019-02-21T16:52:50.433Z,22.87
2019-02-21T16:55:21.160Z,23.50
2019-02-21T16:57:49.604Z,26.63
2019-02-21T17:00:20.351Z,26.50
2019-02-21T17:02:48.869Z,27.60
2019-02-21T17:05:17.634Z,28.90
2019-02-21T17:07:46.189Z,33.40
2019-02-21T17:10:16.128Z,54.37
2019-02-21T17:12:44.697Z,45.47
2019-02-21T17:15:15.239Z,38.00
2019-02-21T17:17:43.772Z,32.70
2019-02-21T17:20:17.154Z,31.90
2019-02-21T17:22:45.785Z,28.70
2019-02-21T17:25:15.557Z,31.23
2019-02-21T17:27:46.146Z,29.07
2019-02-21T17:30:16.404Z,27.60
2019-02-21T17:32:44.949Z,30.93
2019-02-21T17:35:14.007Z,32.97
2019-02-21T17:37:42.546Z,28.93
2019-02-21T17:40:19.368Z,29.87
2019-02-21T17:42:48.040Z,31.03
2019-02-21T17:45:16.837Z,28.57
2019-02-21T17:47:45.508Z,28.17
2019-02-21T17:50:16.437Z,33.43
2019-02-21T17:52:45.059Z,32.53
2019-02-21T17:55:14.337Z,32.37
2019-02-21T17:57:42.985Z,29.60
2019-02-21T18:00:21.781Z,32.10
2019-02-21T18:02:50.467Z,32.57
2019-02-21T18:05:19.064Z,31.83
2019-02-21T18:07:47.613Z,30.87
2019-02-21T18:10:17.108Z,33.77
2019-02-21T18:12:45.603Z,36.27
2019-02-21T18:15:15.594Z,36.97
2019-02-21T18:17:44.265Z,31.17
2019-02-21T18:20:14.029Z,31.50
2019-02-21T18:22:42.560Z,31.80
2019-02-21T18:25:29.209Z,30.23
2019-02-21T18:27:57.866Z,32.47
2019-02-21T18:30:26.378Z,31.10
2019-02-21T18:32:54.993Z,32.93
2019-02-21T18:35:23.616Z,32.73
2019-02-21T18:37:54.989Z,33.33
2019-02-21T18:40:25.106Z,30.90
2019-02-21T18:42:53.605Z,34.17
2019-02-21T18:45:22.234Z,30.37
2019-02-21T18:47:50.780Z,36.03
2019-02-21T18:50:19.312Z,33.77
2019-02-21T18:52:47.901Z,31.40
2019-02-21T18:55:16.478Z,31.87
2019-02-21T18:57:45.065Z,31.37
2019-02-21T19:00:16.898Z,42.83
2019-02-21T19:02:45.392Z,37.93
2019-02-21T19:05:14.115Z,37.00
2019-02-21T19:07:42.644Z,35.93
2019-02-21T19:10:16.687Z,37.57
2019-02-21T19:12:45.239Z,38.30
2019-02-21T19:15:14.969Z,31.97
2019-02-21T19:17:43.533Z,36.67
2019-02-21T19:20:14.529Z,31.23
2019-02-21T19:22:43.396Z,32.93
2019-02-21T19:25:12.669Z,37.30
2019-02-21T19:27:41.273Z,40.07
2019-02-21T19:30:15.726Z,34.13
2019-02-21T19:32:44.232Z,33.97
2019-02-21T19:35:12.889Z,33.87
2019-02-21T19:37:41.585Z,35.17
2019-02-21T19:40:11.062Z,37.17
2019-02-21T19:42:39.625Z,33.73
2019-02-21T19:45:09.211Z,37.10
2019-02-21T19:47:37.891Z,37.03
2019-02-21T19:50:08.663Z,32.67
2019-02-21T19:52:37.454Z,36.93
2019-02-21T19:55:08.149Z,34.63
2019-02-21T19:57:36.936Z,32.67
2019-02-21T20:00:08.422Z,33.90
2019-02-21T20:02:37.319Z,33.97
2019-02-21T20:05:06.728Z,39.47
2019-02-21T20:07:35.259Z,32.80
2019-02-21T20:10:04.822Z,32.67
2019-02-21T20:12:33.497Z,32.60
2019-02-21T20:15:01.994Z,37.33
2019-02-21T20:17:30.568Z,38.57
2019-02-21T20:19:59.049Z,31.93
2019-02-21T20:22:27.599Z,32.43
2019-02-21T20:24:56.115Z,34.73
2019-02-21T20:27:24.773Z,30.83
2019-02-21T20:29:53.215Z,31.97
2019-02-21T20:32:22.019Z,33.40
2019-02-21T20:34:50.546Z,31.50
2019-02-21T20:37:19.044Z,31.13
2019-02-21T20:39:47.720Z,32.97
2019-02-21T20:42:16.385Z,31.63
2019-02-21T20:44:44.903Z,32.30
2019-02-21T20:47:13.430Z,30.90
2019-02-21T20:49:42.163Z,30.63
2019-02-21T20:52:10.693Z,32.00
2019-02-21T20:54:39.376Z,33.80
2019-02-21T20:57:07.995Z,32.27
2019-02-21T20:59:36.558Z,30.17
2019-02-21T21:02:05.256Z,33.70
2019-02-21T21:04:33.917Z,34.37
2019-02-21T21:07:02.572Z,31.97
2019-02-21T21:09:31.166Z,32.27
2019-02-21T21:11:59.737Z,29.63
2019-02-21T21:14:28.198Z,27.30
2019-02-21T21:16:56.843Z,28.17
2019-02-21T21:19:25.393Z,28.40
2019-02-21T21:21:54.056Z,31.93
2019-02-21T21:24:22.559Z,32.73
2019-02-21T21:26:51.163Z,27.43
2019-02-21T21:29:19.753Z,30.40
2019-02-21T21:31:48.345Z,30.07
2019-02-21T21:34:17.089Z,27.77
2019-02-21T21:36:45.714Z,28.27
2019-02-21T21:39:14.379Z,33.17
2019-02-21T21:41:42.922Z,27.63
2019-02-21T21:44:11.416Z,32.83
2019-02-21T21:46:39.999Z,32.33
2019-02-21T21:49:08.644Z,31.63
2019-02-21T21:51:37.235Z,30.20
2019-02-21T21:54:05.827Z,29.17
2019-02-21T21:56:34.307Z,34.20
2019-02-21T21:59:02.921Z,31.17
2019-02-21T22:01:31.466Z,33.97
2019-02-21T22:03:59.963Z,30.90
2019-02-21T22:06:28.587Z,28.33
2019-02-21T22:09:04.428Z,33.77
2019-02-21T22:11:27.519Z,29.33
2019-02-21T22:13:55.972Z,34.93
2019-02-21T22:16:24.596Z,32.57
2019-02-21T22:18:53.319Z,29.50
2019-02-21T22:21:21.784Z,32.00
2019-02-21T22:23:50.326Z,32.80
2019-02-21T22:26:18.837Z,31.73
2019-02-21T22:28:47.416Z,34.10
2019-02-21T22:31:15.851Z,33.93
2019-02-21T22:33:44.490Z,32.27
2019-02-21T22:36:12.930Z,36.20
2019-02-21T22:38:41.990Z,32.20
2019-02-21T22:41:10.451Z,34.97
2019-02-21T22:43:38.986Z,35.30
2019-02-21T22:46:07.422Z,33.10
2019-02-21T22:48:46.630Z,32.70
2019-02-21T22:51:06.145Z,39.80
2019-02-21T22:53:34.653Z,35.27
2019-02-21T22:56:03.159Z,29.40
2019-02-21T22:58:31.636Z,34.97
2019-02-21T23:01:03.802Z,36.27
2019-02-21T23:03:44.807Z,39.97
2019-02-21T23:06:25.073Z,41.90
2019-02-21T23:08:54.693Z,38.93
2019-02-21T23:11:23.777Z,38.87
2019-02-21T23:13:52.543Z,37.63
2019-02-21T23:16:21.156Z,38.93
2019-02-21T23:18:50.094Z,36.80
2019-02-21T23:21:18.650Z,43.00
2019-02-21T23:23:47.218Z,40.17
2019-02-21T23:26:15.784Z,35.27
2019-02-21T23:28:44.247Z,37.17
2019-02-21T23:31:13.109Z,39.23
2019-02-21T23:33:49.427Z,39.27
2019-02-21T23:36:18.029Z,41.30
2019-02-21T23:38:46.606Z,41.67
2019-02-21T23:41:15.228Z,36.13
2019-02-21T23:43:43.664Z,40.27
2019-02-21T23:46:12.171Z,42.97
2019-02-21T23:48:40.838Z,40.47
2019-02-21T23:51:09.293Z,40.90
2019-02-21T23:53:37.755Z,42.60
2019-02-21T23:56:06.178Z,42.20
2019-02-21T23:58:34.622Z,38.30
